sensor_id;sensor_type;location;lat;lon;timestamp;P1;durP1;ratioP1;P2;durP2;ratioP2
33826;SDS011;20128;45.582;5.298;2023-07-13T00:00:02;5.60;;;2.28;;
33826;SDS011;20128;45.582;5.298;2023-07-13T00:02:34;4.00;;;2.60;;
33826;SDS011;20128;45.582;5.298;2023-07-13T00:04:59;6.22;;;2.00;;
33826;SDS011;20128;45.582;5.298;2023-07-13T00:07:25;4.88;;;2.58;;
33826;SDS011;20128;45.582;5.298;2023-07-13T00:09:51;5.63;;;2.05;;
33826;SDS011;20128;45.582;5.298;2023-07-13T00:12:28;7.57;;;2.13;;
33826;SDS011;20128;45.582;5.298;2023-07-13T00:14:56;4.93;;;1.90;;
33826;SDS011;20128;45.582;5.298;2023-07-13T00:17:24;2.75;;;1.48;;
33826;SDS011;20128;45.582;5.298;2023-07-13T00:19:49;3.78;;;1.73;;
33826;SDS011;20128;45.582;5.298;2023-07-13T00:22:15;2.13;;;1.25;;
33826;SDS011;20128;45.582;5.298;2023-07-13T00:24:43;2.80;;;1.20;;
33826;SDS011;20128;45.582;5.298;2023-07-13T00:27:09;1.85;;;1.30;;
33826;SDS011;20128;45.582;5.298;2023-07-13T00:29:35;2.63;;;1.40;;
33826;SDS011;20128;45.582;5.298;2023-07-13T00:32:02;3.40;;;1.38;;
33826;SDS011;20128;45.582;5.298;2023-07-13T00:34:29;2.33;;;1.48;;
33826;SDS011;20128;45.582;5.298;2023-07-13T00:36:55;1.27;;;1.02;;
33826;SDS011;20128;45.582;5.298;2023-07-13T00:39:21;2.78;;;1.13;;
33826;SDS011;20128;45.582;5.298;2023-07-13T00:41:47;4.72;;;1.55;;
33826;SDS011;20128;45.582;5.298;2023-07-13T00:44:13;1.15;;;1.02;;
33826;SDS011;20128;45.582;5.298;2023-07-13T00:46:40;7.40;;;1.08;;
33826;SDS011;20128;45.582;5.298;2023-07-13T00:49:06;2.70;;;1.05;;
33826;SDS011;20128;45.582;5.298;2023-07-13T00:51:49;5.32;;;1.35;;
33826;SDS011;20128;45.582;5.298;2023-07-13T00:54:39;6.65;;;1.30;;
33826;SDS011;20128;45.582;5.298;2023-07-13T00:57:09;3.78;;;0.90;;
33826;SDS011;20128;45.582;5.298;2023-07-13T00:59:40;2.97;;;1.05;;
33826;SDS011;20128;45.582;5.298;2023-07-13T01:02:08;2.08;;;1.10;;
33826;SDS011;20128;45.582;5.298;2023-07-13T01:04:35;3.78;;;1.48;;
33826;SDS011;20128;45.582;5.298;2023-07-13T01:07:00;5.03;;;1.20;;
33826;SDS011;20128;45.582;5.298;2023-07-13T01:09:26;2.17;;;1.23;;
33826;SDS011;20128;45.582;5.298;2023-07-13T01:11:52;1.13;;;0.82;;
33826;SDS011;20128;45.582;5.298;2023-07-13T01:14:18;1.63;;;1.10;;
33826;SDS011;20128;45.582;5.298;2023-07-13T01:16:44;2.17;;;1.30;;
33826;SDS011;20128;45.582;5.298;2023-07-13T01:21:43;3.28;;;0.93;;
33826;SDS011;20128;45.582;5.298;2023-07-13T01:24:09;7.00;;;0.93;;
33826;SDS011;20128;45.582;5.298;2023-07-13T01:26:34;4.43;;;1.48;;
33826;SDS011;20128;45.582;5.298;2023-07-13T01:29:00;2.97;;;1.00;;
33826;SDS011;20128;45.582;5.298;2023-07-13T01:31:26;3.67;;;1.10;;
33826;SDS011;20128;45.582;5.298;2023-07-13T01:33:52;2.33;;;0.90;;
33826;SDS011;20128;45.582;5.298;2023-07-13T01:36:18;2.25;;;1.08;;
33826;SDS011;20128;45.582;5.298;2023-07-13T01:38:46;3.58;;;1.00;;
33826;SDS011;20128;45.582;5.298;2023-07-13T01:41:11;2.35;;;1.40;;
33826;SDS011;20128;45.582;5.298;2023-07-13T01:43:37;2.80;;;0.98;;
33826;SDS011;20128;45.582;5.298;2023-07-13T01:46:04;2.47;;;1.10;;
33826;SDS011;20128;45.582;5.298;2023-07-13T01:48:29;2.13;;;1.05;;
33826;SDS011;20128;45.582;5.298;2023-07-13T01:50:55;1.85;;;0.88;;
33826;SDS011;20128;45.582;5.298;2023-07-13T01:53:21;3.85;;;0.68;;
33826;SDS011;20128;45.582;5.298;2023-07-13T01:55:47;4.25;;;1.38;;
33826;SDS011;20128;45.582;5.298;2023-07-13T01:58:12;2.80;;;0.90;;
33826;SDS011;20128;45.582;5.298;2023-07-13T02:00:38;1.10;;;0.68;;
33826;SDS011;20128;45.582;5.298;2023-07-13T02:03:03;2.13;;;0.90;;
33826;SDS011;20128;45.582;5.298;2023-07-13T02:05:29;3.33;;;0.90;;
33826;SDS011;20128;45.582;5.298;2023-07-13T02:07:55;1.80;;;0.80;;
33826;SDS011;20128;45.582;5.298;2023-07-13T02:10:21;4.43;;;0.93;;
33826;SDS011;20128;45.582;5.298;2023-07-13T02:12:47;3.70;;;0.70;;
33826;SDS011;20128;45.582;5.298;2023-07-13T02:15:15;2.20;;;0.80;;
33826;SDS011;20128;45.582;5.298;2023-07-13T02:17:41;4.30;;;0.80;;
33826;SDS011;20128;45.582;5.298;2023-07-13T02:20:07;1.77;;;0.77;;
33826;SDS011;20128;45.582;5.298;2023-07-13T02:22:34;3.53;;;1.15;;
33826;SDS011;20128;45.582;5.298;2023-07-13T02:25:00;4.93;;;1.13;;
33826;SDS011;20128;45.582;5.298;2023-07-13T02:27:25;6.30;;;0.93;;
33826;SDS011;20128;45.582;5.298;2023-07-13T02:29:52;5.00;;;1.08;;
33826;SDS011;20128;45.582;5.298;2023-07-13T02:32:18;4.55;;;1.25;;
33826;SDS011;20128;45.582;5.298;2023-07-13T02:34:44;4.43;;;1.00;;
33826;SDS011;20128;45.582;5.298;2023-07-13T02:37:10;3.42;;;0.80;;
33826;SDS011;20128;45.582;5.298;2023-07-13T02:39:36;5.25;;;1.02;;
33826;SDS011;20128;45.582;5.298;2023-07-13T02:42:01;10.25;;;1.17;;
33826;SDS011;20128;45.582;5.298;2023-07-13T02:44:28;3.72;;;0.90;;
33826;SDS011;20128;45.582;5.298;2023-07-13T02:46:54;7.55;;;1.45;;
33826;SDS011;20128;45.582;5.298;2023-07-13T02:49:20;4.38;;;1.27;;
33826;SDS011;20128;45.582;5.298;2023-07-13T02:51:45;2.70;;;1.05;;
33826;SDS011;20128;45.582;5.298;2023-07-13T02:54:11;8.57;;;1.30;;
33826;SDS011;20128;45.582;5.298;2023-07-13T02:56:38;10.32;;;1.70;;
33826;SDS011;20128;45.582;5.298;2023-07-13T02:59:04;6.93;;;1.27;;
33826;SDS011;20128;45.582;5.298;2023-07-13T03:01:30;5.28;;;1.20;;
33826;SDS011;20128;45.582;5.298;2023-07-13T03:03:57;6.28;;;1.15;;
33826;SDS011;20128;45.582;5.298;2023-07-13T03:06:23;8.73;;;1.52;;
33826;SDS011;20128;45.582;5.298;2023-07-13T03:08:49;5.60;;;1.45;;
33826;SDS011;20128;45.582;5.298;2023-07-13T03:11:19;4.78;;;1.50;;
33826;SDS011;20128;45.582;5.298;2023-07-13T03:13:45;9.27;;;1.50;;
33826;SDS011;20128;45.582;5.298;2023-07-13T03:16:11;5.78;;;1.23;;
33826;SDS011;20128;45.582;5.298;2023-07-13T03:18:37;3.72;;;1.40;;
33826;SDS011;20128;45.582;5.298;2023-07-13T03:21:04;3.30;;;1.63;;
33826;SDS011;20128;45.582;5.298;2023-07-13T03:23:30;3.88;;;1.38;;
33826;SDS011;20128;45.582;5.298;2023-07-13T03:26:03;3.97;;;1.23;;
33826;SDS011;20128;45.582;5.298;2023-07-13T03:28:40;4.93;;;1.38;;
33826;SDS011;20128;45.582;5.298;2023-07-13T03:31:07;7.63;;;1.50;;
33826;SDS011;20128;45.582;5.298;2023-07-13T03:33:35;5.88;;;1.27;;
33826;SDS011;20128;45.582;5.298;2023-07-13T03:36:02;4.55;;;1.50;;
33826;SDS011;20128;45.582;5.298;2023-07-13T03:38:28;4.13;;;1.60;;
33826;SDS011;20128;45.582;5.298;2023-07-13T03:40:54;5.82;;;1.48;;
33826;SDS011;20128;45.582;5.298;2023-07-13T03:43:20;6.53;;;1.45;;
33826;SDS011;20128;45.582;5.298;2023-07-13T03:45:45;5.00;;;1.35;;
33826;SDS011;20128;45.582;5.298;2023-07-13T03:48:11;5.93;;;1.52;;
33826;SDS011;20128;45.582;5.298;2023-07-13T03:50:38;7.20;;;1.98;;
33826;SDS011;20128;45.582;5.298;2023-07-13T03:53:04;6.45;;;1.40;;
33826;SDS011;20128;45.582;5.298;2023-07-13T03:55:29;4.00;;;1.50;;
33826;SDS011;20128;45.582;5.298;2023-07-13T04:00:49;4.85;;;1.48;;
33826;SDS011;20128;45.582;5.298;2023-07-13T04:03:15;4.15;;;1.17;;
33826;SDS011;20128;45.582;5.298;2023-07-13T04:05:41;13.18;;;1.30;;
33826;SDS011;20128;45.582;5.298;2023-07-13T04:08:07;4.25;;;1.73;;
33826;SDS011;20128;45.582;5.298;2023-07-13T04:10:32;3.22;;;1.50;;
33826;SDS011;20128;45.582;5.298;2023-07-13T04:12:59;11.73;;;1.73;;
33826;SDS011;20128;45.582;5.298;2023-07-13T04:15:25;5.97;;;1.38;;
33826;SDS011;20128;45.582;5.298;2023-07-13T04:17:54;4.80;;;1.25;;
33826;SDS011;20128;45.582;5.298;2023-07-13T04:20:19;5.00;;;1.73;;
33826;SDS011;20128;45.582;5.298;2023-07-13T04:22:46;4.93;;;1.23;;
33826;SDS011;20128;45.582;5.298;2023-07-13T04:25:12;3.00;;;1.08;;
33826;SDS011;20128;45.582;5.298;2023-07-13T04:27:38;7.85;;;1.20;;
33826;SDS011;20128;45.582;5.298;2023-07-13T04:30:05;5.95;;;1.23;;
33826;SDS011;20128;45.582;5.298;2023-07-13T04:32:31;1.98;;;1.05;;
33826;SDS011;20128;45.582;5.298;2023-07-13T04:34:57;2.90;;;1.17;;
33826;SDS011;20128;45.582;5.298;2023-07-13T04:37:24;5.93;;;1.35;;
33826;SDS011;20128;45.582;5.298;2023-07-13T04:39:50;4.03;;;1.38;;
33826;SDS011;20128;45.582;5.298;2023-07-13T04:42:16;4.35;;;1.23;;
33826;SDS011;20128;45.582;5.298;2023-07-13T04:44:42;3.28;;;1.25;;
33826;SDS011;20128;45.582;5.298;2023-07-13T04:47:12;10.48;;;2.05;;
33826;SDS011;20128;45.582;5.298;2023-07-13T04:49:37;3.75;;;1.60;;
33826;SDS011;20128;45.582;5.298;2023-07-13T04:52:03;6.93;;;1.30;;
33826;SDS011;20128;45.582;5.298;2023-07-13T04:54:29;7.93;;;1.23;;
33826;SDS011;20128;45.582;5.298;2023-07-13T04:56:55;4.25;;;1.90;;
33826;SDS011;20128;45.582;5.298;2023-07-13T04:59:21;3.90;;;1.20;;
33826;SDS011;20128;45.582;5.298;2023-07-13T05:01:47;3.88;;;1.25;;
33826;SDS011;20128;45.582;5.298;2023-07-13T05:04:12;4.05;;;1.45;;
33826;SDS011;20128;45.582;5.298;2023-07-13T05:06:38;3.90;;;1.50;;
33826;SDS011;20128;45.582;5.298;2023-07-13T05:09:04;7.97;;;1.40;;
33826;SDS011;20128;45.582;5.298;2023-07-13T05:11:29;5.78;;;1.25;;
33826;SDS011;20128;45.582;5.298;2023-07-13T05:13:55;4.15;;;1.48;;
33826;SDS011;20128;45.582;5.298;2023-07-13T05:16:20;4.18;;;1.38;;
33826;SDS011;20128;45.582;5.298;2023-07-13T05:18:46;5.90;;;1.20;;
33826;SDS011;20128;45.582;5.298;2023-07-13T05:21:12;2.95;;;1.20;;
33826;SDS011;20128;45.582;5.298;2023-07-13T05:23:39;2.50;;;1.35;;
33826;SDS011;20128;45.582;5.298;2023-07-13T05:26:06;6.50;;;1.65;;
33826;SDS011;20128;45.582;5.298;2023-07-13T05:28:32;5.32;;;1.65;;
33826;SDS011;20128;45.582;5.298;2023-07-13T05:30:58;3.95;;;1.05;;
33826;SDS011;20128;45.582;5.298;2023-07-13T05:33:24;4.13;;;1.33;;
33826;SDS011;20128;45.582;5.298;2023-07-13T05:35:51;2.72;;;1.30;;
33826;SDS011;20128;45.582;5.298;2023-07-13T05:38:16;4.85;;;2.25;;
33826;SDS011;20128;45.582;5.298;2023-07-13T05:40:43;4.03;;;1.23;;
33826;SDS011;20128;45.582;5.298;2023-07-13T05:43:09;3.63;;;1.15;;
33826;SDS011;20128;45.582;5.298;2023-07-13T05:45:35;4.18;;;1.60;;
33826;SDS011;20128;45.582;5.298;2023-07-13T05:48:00;3.17;;;1.35;;
33826;SDS011;20128;45.582;5.298;2023-07-13T05:50:26;5.38;;;1.20;;
33826;SDS011;20128;45.582;5.298;2023-07-13T05:52:52;5.38;;;1.23;;
33826;SDS011;20128;45.582;5.298;2023-07-13T05:55:18;5.57;;;1.00;;
33826;SDS011;20128;45.582;5.298;2023-07-13T05:57:45;4.50;;;1.15;;
33826;SDS011;20128;45.582;5.298;2023-07-13T06:00:11;7.80;;;1.45;;
33826;SDS011;20128;45.582;5.298;2023-07-13T06:02:37;5.07;;;1.52;;
33826;SDS011;20128;45.582;5.298;2023-07-13T06:05:03;6.97;;;1.40;;
33826;SDS011;20128;45.582;5.298;2023-07-13T06:07:28;6.03;;;1.52;;
33826;SDS011;20128;45.582;5.298;2023-07-13T06:09:54;6.60;;;1.58;;
33826;SDS011;20128;45.582;5.298;2023-07-13T06:12:20;4.20;;;1.40;;
33826;SDS011;20128;45.582;5.298;2023-07-13T06:14:46;4.82;;;1.35;;
33826;SDS011;20128;45.582;5.298;2023-07-13T06:17:11;3.35;;;1.40;;
33826;SDS011;20128;45.582;5.298;2023-07-13T06:19:37;9.93;;;2.08;;
33826;SDS011;20128;45.582;5.298;2023-07-13T06:22:03;6.97;;;2.05;;
33826;SDS011;20128;45.582;5.298;2023-07-13T06:24:29;6.43;;;1.63;;
33826;SDS011;20128;45.582;5.298;2023-07-13T06:26:55;8.15;;;2.17;;
33826;SDS011;20128;45.582;5.298;2023-07-13T06:29:21;4.60;;;1.85;;
33826;SDS011;20128;45.582;5.298;2023-07-13T06:31:47;6.25;;;1.67;;
33826;SDS011;20128;45.582;5.298;2023-07-13T06:34:12;8.82;;;2.80;;
33826;SDS011;20128;45.582;5.298;2023-07-13T06:36:38;11.82;;;3.72;;
33826;SDS011;20128;45.582;5.298;2023-07-13T06:39:04;5.32;;;1.58;;
33826;SDS011;20128;45.582;5.298;2023-07-13T06:41:29;4.93;;;1.52;;
33826;SDS011;20128;45.582;5.298;2023-07-13T06:43:55;5.75;;;1.50;;
33826;SDS011;20128;45.582;5.298;2023-07-13T06:46:22;6.68;;;1.65;;
33826;SDS011;20128;45.582;5.298;2023-07-13T06:48:48;3.13;;;1.23;;
33826;SDS011;20128;45.582;5.298;2023-07-13T06:51:14;6.25;;;2.08;;
33826;SDS011;20128;45.582;5.298;2023-07-13T06:53:39;17.77;;;2.83;;
33826;SDS011;20128;45.582;5.298;2023-07-13T06:56:05;3.00;;;1.50;;
33826;SDS011;20128;45.582;5.298;2023-07-13T06:58:31;3.50;;;1.67;;
33826;SDS011;20128;45.582;5.298;2023-07-13T07:00:58;3.20;;;1.85;;
33826;SDS011;20128;45.582;5.298;2023-07-13T07:03:24;4.82;;;1.45;;
33826;SDS011;20128;45.582;5.298;2023-07-13T07:05:49;4.80;;;1.60;;
33826;SDS011;20128;45.582;5.298;2023-07-13T07:08:15;9.32;;;1.40;;
33826;SDS011;20128;45.582;5.298;2023-07-13T07:10:41;3.92;;;1.45;;
33826;SDS011;20128;45.582;5.298;2023-07-13T07:13:07;6.50;;;1.70;;
33826;SDS011;20128;45.582;5.298;2023-07-13T07:15:34;6.18;;;1.42;;
33826;SDS011;20128;45.582;5.298;2023-07-13T07:18:00;5.70;;;1.45;;
33826;SDS011;20128;45.582;5.298;2023-07-13T07:20:26;5.95;;;1.40;;
33826;SDS011;20128;45.582;5.298;2023-07-13T07:22:52;7.53;;;1.83;;
33826;SDS011;20128;45.582;5.298;2023-07-13T07:25:18;5.15;;;1.73;;
33826;SDS011;20128;45.582;5.298;2023-07-13T07:27:43;5.40;;;1.60;;
33826;SDS011;20128;45.582;5.298;2023-07-13T07:30:10;9.30;;;1.90;;
33826;SDS011;20128;45.582;5.298;2023-07-13T07:32:36;8.07;;;1.75;;
33826;SDS011;20128;45.582;5.298;2023-07-13T07:35:02;5.82;;;1.75;;
33826;SDS011;20128;45.582;5.298;2023-07-13T07:37:27;9.82;;;2.00;;
33826;SDS011;20128;45.582;5.298;2023-07-13T07:39:53;4.03;;;1.67;;
33826;SDS011;20128;45.582;5.298;2023-07-13T07:42:19;10.55;;;1.65;;
33826;SDS011;20128;45.582;5.298;2023-07-13T07:44:45;5.63;;;1.45;;
33826;SDS011;20128;45.582;5.298;2023-07-13T07:47:10;11.23;;;1.90;;
33826;SDS011;20128;45.582;5.298;2023-07-13T07:49:36;7.57;;;1.77;;
33826;SDS011;20128;45.582;5.298;2023-07-13T07:52:03;4.50;;;1.60;;
33826;SDS011;20128;45.582;5.298;2023-07-13T07:54:29;10.77;;;1.88;;
33826;SDS011;20128;45.582;5.298;2023-07-13T07:56:54;4.15;;;1.77;;
33826;SDS011;20128;45.582;5.298;2023-07-13T07:59:20;6.72;;;1.92;;
33826;SDS011;20128;45.582;5.298;2023-07-13T08:01:46;8.90;;;1.80;;
33826;SDS011;20128;45.582;5.298;2023-07-13T08:04:13;7.00;;;1.98;;
33826;SDS011;20128;45.582;5.298;2023-07-13T08:06:38;7.80;;;1.55;;
33826;SDS011;20128;45.582;5.298;2023-07-13T08:09:04;4.90;;;1.55;;
33826;SDS011;20128;45.582;5.298;2023-07-13T08:11:31;5.97;;;1.38;;
33826;SDS011;20128;45.582;5.298;2023-07-13T08:13:56;7.82;;;2.05;;
33826;SDS011;20128;45.582;5.298;2023-07-13T08:16:22;6.30;;;1.33;;
33826;SDS011;20128;45.582;5.298;2023-07-13T08:18:48;10.57;;;1.90;;
33826;SDS011;20128;45.582;5.298;2023-07-13T08:21:14;6.82;;;1.65;;
33826;SDS011;20128;45.582;5.298;2023-07-13T08:23:40;5.40;;;1.48;;
33826;SDS011;20128;45.582;5.298;2023-07-13T08:26:06;4.57;;;1.98;;
33826;SDS011;20128;45.582;5.298;2023-07-13T08:28:33;10.65;;;1.95;;
33826;SDS011;20128;45.582;5.298;2023-07-13T08:31:02;5.65;;;1.48;;
33826;SDS011;20128;45.582;5.298;2023-07-13T08:33:32;7.80;;;1.33;;
33826;SDS011;20128;45.582;5.298;2023-07-13T08:35:59;7.22;;;1.45;;
33826;SDS011;20128;45.582;5.298;2023-07-13T08:38:24;7.90;;;1.98;;
33826;SDS011;20128;45.582;5.298;2023-07-13T08:40:55;7.85;;;1.80;;
33826;SDS011;20128;45.582;5.298;2023-07-13T08:43:35;5.20;;;1.30;;
33826;SDS011;20128;45.582;5.298;2023-07-13T08:46:13;4.03;;;1.50;;
33826;SDS011;20128;45.582;5.298;2023-07-13T08:49:01;4.35;;;1.80;;
33826;SDS011;20128;45.582;5.298;2023-07-13T08:51:31;7.35;;;1.30;;
33826;SDS011;20128;45.582;5.298;2023-07-13T08:54:18;9.93;;;1.33;;
33826;SDS011;20128;45.582;5.298;2023-07-13T08:56:56;7.05;;;1.40;;
33826;SDS011;20128;45.582;5.298;2023-07-13T08:59:24;6.75;;;1.33;;
33826;SDS011;20128;45.582;5.298;2023-07-13T09:21:16;11.40;;;3.88;;
33826;SDS011;20128;45.582;5.298;2023-07-13T09:23:44;6.82;;;2.30;;
33826;SDS011;20128;45.582;5.298;2023-07-13T09:26:22;7.95;;;2.95;;
33826;SDS011;20128;45.582;5.298;2023-07-13T09:28:50;7.05;;;2.53;;
33826;SDS011;20128;45.582;5.298;2023-07-13T09:31:37;6.75;;;1.85;;
33826;SDS011;20128;45.582;5.298;2023-07-13T09:34:10;6.65;;;1.15;;
33826;SDS011;20128;45.582;5.298;2023-07-13T09:36:37;7.82;;;1.90;;
33826;SDS011;20128;45.582;5.298;2023-07-13T09:44:17;5.93;;;1.70;;
33826;SDS011;20128;45.582;5.298;2023-07-13T09:46:53;6.25;;;2.05;;
33826;SDS011;20128;45.582;5.298;2023-07-13T09:49:34;5.00;;;1.58;;
33826;SDS011;20128;45.582;5.298;2023-07-13T09:52:06;5.88;;;1.50;;
33826;SDS011;20128;45.582;5.298;2023-07-13T09:54:36;6.15;;;2.10;;
33826;SDS011;20128;45.582;5.298;2023-07-13T09:57:03;3.85;;;1.23;;
33826;SDS011;20128;45.582;5.298;2023-07-13T09:59:39;8.20;;;1.83;;
33826;SDS011;20128;45.582;5.298;2023-07-13T10:04:59;8.23;;;1.90;;
33826;SDS011;20128;45.582;5.298;2023-07-13T10:07:26;4.60;;;1.20;;
33826;SDS011;20128;45.582;5.298;2023-07-13T10:09:56;9.02;;;1.77;;
33826;SDS011;20128;45.582;5.298;2023-07-13T10:12:23;3.58;;;1.27;;
33826;SDS011;20128;45.582;5.298;2023-07-13T10:14:54;7.63;;;1.45;;
33826;SDS011;20128;45.582;5.298;2023-07-13T10:17:25;3.30;;;1.00;;
33826;SDS011;20128;45.582;5.298;2023-07-13T10:19:55;2.55;;;1.30;;
33826;SDS011;20128;45.582;5.298;2023-07-13T10:22:31;4.10;;;1.35;;
33826;SDS011;20128;45.582;5.298;2023-07-13T10:25:15;5.72;;;1.35;;
33826;SDS011;20128;45.582;5.298;2023-07-13T10:27:43;4.60;;;1.10;;
33826;SDS011;20128;45.582;5.298;2023-07-13T10:32:45;6.30;;;2.00;;
33826;SDS011;20128;45.582;5.298;2023-07-13T10:35:13;5.10;;;1.65;;
33826;SDS011;20128;45.582;5.298;2023-07-13T10:38:25;9.25;;;0.90;;
33826;SDS011;20128;45.582;5.298;2023-07-13T10:43:00;4.63;;;1.25;;
33826;SDS011;20128;45.582;5.298;2023-07-13T10:45:33;5.38;;;1.20;;
33826;SDS011;20128;45.582;5.298;2023-07-13T10:48:00;8.82;;;1.30;;
33826;SDS011;20128;45.582;5.298;2023-07-13T10:50:28;4.30;;;1.15;;
33826;SDS011;20128;45.582;5.298;2023-07-13T10:53:17;7.65;;;1.40;;
33826;SDS011;20128;45.582;5.298;2023-07-13T11:00:49;3.22;;;1.08;;
33826;SDS011;20128;45.582;5.298;2023-07-13T11:03:25;4.82;;;1.08;;
33826;SDS011;20128;45.582;5.298;2023-07-13T11:06:04;4.78;;;1.00;;
33826;SDS011;20128;45.582;5.298;2023-07-13T11:21:17;4.70;;;0.90;;
33826;SDS011;20128;45.582;5.298;2023-07-13T11:23:51;7.75;;;1.00;;
33826;SDS011;20128;45.582;5.298;2023-07-13T11:31:58;4.25;;;0.88;;
33826;SDS011;20128;45.582;5.298;2023-07-13T11:34:36;7.53;;;1.08;;
33826;SDS011;20128;45.582;5.298;2023-07-13T11:37:03;2.33;;;0.93;;
33826;SDS011;20128;45.582;5.298;2023-07-13T11:39:37;2.13;;;0.80;;
33826;SDS011;20128;45.582;5.298;2023-07-13T11:42:11;7.25;;;1.63;;
33826;SDS011;20128;45.582;5.298;2023-07-13T11:44:43;3.13;;;0.98;;
33826;SDS011;20128;45.582;5.298;2023-07-13T11:47:17;4.28;;;1.88;;
33826;SDS011;20128;45.582;5.298;2023-07-13T11:49:51;5.78;;;1.25;;
33826;SDS011;20128;45.582;5.298;2023-07-13T11:54:57;4.18;;;1.35;;
33826;SDS011;20128;45.582;5.298;2023-07-13T11:57:28;4.30;;;0.68;;
33826;SDS011;20128;45.582;5.298;2023-07-13T12:00:00;2.50;;;1.00;;
33826;SDS011;20128;45.582;5.298;2023-07-13T12:04:58;3.38;;;1.25;;
33826;SDS011;20128;45.582;5.298;2023-07-13T12:07:24;6.30;;;0.88;;
33826;SDS011;20128;45.582;5.298;2023-07-13T12:10:02;9.43;;;0.98;;
33826;SDS011;20128;45.582;5.298;2023-07-13T12:12:34;3.55;;;1.10;;
33826;SDS011;20128;45.582;5.298;2023-07-13T12:15:05;5.57;;;0.98;;
33826;SDS011;20128;45.582;5.298;2023-07-13T12:17:34;4.35;;;0.90;;
33826;SDS011;20128;45.582;5.298;2023-07-13T12:20:00;4.13;;;1.00;;
33826;SDS011;20128;45.582;5.298;2023-07-13T12:22:33;4.22;;;0.90;;
33826;SDS011;20128;45.582;5.298;2023-07-13T12:24:59;6.53;;;1.00;;
33826;SDS011;20128;45.582;5.298;2023-07-13T12:27:26;6.93;;;1.15;;
33826;SDS011;20128;45.582;5.298;2023-07-13T12:30:00;2.72;;;1.00;;
33826;SDS011;20128;45.582;5.298;2023-07-13T12:32:28;4.13;;;0.70;;
33826;SDS011;20128;45.582;5.298;2023-07-13T12:35:01;6.63;;;1.02;;
33826;SDS011;20128;45.582;5.298;2023-07-13T12:37:43;9.85;;;1.17;;
33826;SDS011;20128;45.582;5.298;2023-07-13T12:40:17;3.33;;;1.15;;
33826;SDS011;20128;45.582;5.298;2023-07-13T12:42:46;4.15;;;1.02;;
33826;SDS011;20128;45.582;5.298;2023-07-13T12:45:24;5.53;;;0.95;;
33826;SDS011;20128;45.582;5.298;2023-07-13T12:47:56;8.75;;;1.05;;
33826;SDS011;20128;45.582;5.298;2023-07-13T12:50:30;2.08;;;0.90;;
33826;SDS011;20128;45.582;5.298;2023-07-13T12:53:03;4.53;;;0.98;;
33826;SDS011;20128;45.582;5.298;2023-07-13T12:58:21;11.50;;;1.08;;
33826;SDS011;20128;45.582;5.298;2023-07-13T13:00:54;7.47;;;0.90;;
33826;SDS011;20128;45.582;5.298;2023-07-13T13:03:29;2.97;;;1.05;;
33826;SDS011;20128;45.582;5.298;2023-07-13T13:06:02;4.75;;;1.38;;
33826;SDS011;20128;45.582;5.298;2023-07-13T13:08:37;3.58;;;1.48;;
33826;SDS011;20128;45.582;5.298;2023-07-13T13:11:06;5.47;;;1.15;;
33826;SDS011;20128;45.582;5.298;2023-07-13T13:13:31;3.47;;;0.75;;
33826;SDS011;20128;45.582;5.298;2023-07-13T13:16:01;2.10;;;1.15;;
33826;SDS011;20128;45.582;5.298;2023-07-13T13:18:31;4.95;;;1.00;;
33826;SDS011;20128;45.582;5.298;2023-07-13T13:20:57;6.40;;;1.35;;
33826;SDS011;20128;45.582;5.298;2023-07-13T13:23:22;2.78;;;1.00;;
33826;SDS011;20128;45.582;5.298;2023-07-13T13:25:50;3.53;;;1.05;;
33826;SDS011;20128;45.582;5.298;2023-07-13T13:28:19;2.42;;;1.30;;
33826;SDS011;20128;45.582;5.298;2023-07-13T13:30:49;7.57;;;1.02;;
33826;SDS011;20128;45.582;5.298;2023-07-13T13:33:17;6.50;;;1.25;;
33826;SDS011;20128;45.582;5.298;2023-07-13T13:35:44;6.72;;;1.20;;
33826;SDS011;20128;45.582;5.298;2023-07-13T13:38:11;7.20;;;1.42;;
33826;SDS011;20128;45.582;5.298;2023-07-13T13:40:41;9.60;;;1.25;;
33826;SDS011;20128;45.582;5.298;2023-07-13T13:43:41;3.20;;;1.00;;
33826;SDS011;20128;45.582;5.298;2023-07-13T13:45:59;1.10;;;0.80;;
33826;SDS011;20128;45.582;5.298;2023-07-13T13:48:32;5.00;;;1.17;;
33826;SDS011;20128;45.582;5.298;2023-07-13T13:53:25;3.22;;;0.68;;
33826;SDS011;20128;45.582;5.298;2023-07-13T13:55:51;5.00;;;1.00;;
33826;SDS011;20128;45.582;5.298;2023-07-13T13:58:18;2.85;;;1.10;;
33826;SDS011;20128;45.582;5.298;2023-07-13T14:00:44;3.17;;;0.73;;
33826;SDS011;20128;45.582;5.298;2023-07-13T14:03:15;4.93;;;1.00;;
33826;SDS011;20128;45.582;5.298;2023-07-13T14:05:45;6.40;;;0.80;;
33826;SDS011;20128;45.582;5.298;2023-07-13T14:08:14;3.53;;;0.82;;
33826;SDS011;20128;45.582;5.298;2023-07-13T14:10:42;2.47;;;0.77;;
33826;SDS011;20128;45.582;5.298;2023-07-13T14:13:15;9.55;;;1.20;;
33826;SDS011;20128;45.582;5.298;2023-07-13T14:15:51;5.23;;;1.30;;
33826;SDS011;20128;45.582;5.298;2023-07-13T14:18:17;10.60;;;1.45;;
33826;SDS011;20128;45.582;5.298;2023-07-13T14:20:47;2.13;;;0.85;;
33826;SDS011;20128;45.582;5.298;2023-07-13T14:23:14;2.55;;;0.98;;
33826;SDS011;20128;45.582;5.298;2023-07-13T14:25:41;3.90;;;0.70;;
33826;SDS011;20128;45.582;5.298;2023-07-13T14:30:59;2.35;;;0.90;;
33826;SDS011;20128;45.582;5.298;2023-07-13T14:33:24;2.00;;;1.05;;
33826;SDS011;20128;45.582;5.298;2023-07-13T14:35:50;4.68;;;0.85;;
33826;SDS011;20128;45.582;5.298;2023-07-13T14:38:17;2.97;;;0.88;;
33826;SDS011;20128;45.582;5.298;2023-07-13T14:40:44;1.70;;;0.88;;
33826;SDS011;20128;45.582;5.298;2023-07-13T14:43:11;4.72;;;1.00;;
33826;SDS011;20128;45.582;5.298;2023-07-13T14:45:43;2.40;;;0.95;;
33826;SDS011;20128;45.582;5.298;2023-07-13T14:48:15;7.57;;;1.00;;
33826;SDS011;20128;45.582;5.298;2023-07-13T14:50:44;6.17;;;0.90;;
33826;SDS011;20128;45.582;5.298;2023-07-13T14:53:11;7.32;;;1.00;;
33826;SDS011;20128;45.582;5.298;2023-07-13T14:55:37;2.17;;;0.93;;
33826;SDS011;20128;45.582;5.298;2023-07-13T14:58:03;2.30;;;0.73;;
33826;SDS011;20128;45.582;5.298;2023-07-13T15:00:29;2.10;;;0.70;;
33826;SDS011;20128;45.582;5.298;2023-07-13T15:02:56;4.07;;;0.75;;
33826;SDS011;20128;45.582;5.298;2023-07-13T15:05:25;1.30;;;0.70;;
33826;SDS011;20128;45.582;5.298;2023-07-13T15:07:56;2.97;;;0.90;;
33826;SDS011;20128;45.582;5.298;2023-07-13T15:10:25;3.95;;;1.00;;
33826;SDS011;20128;45.582;5.298;2023-07-13T15:12:56;5.10;;;1.00;;
33826;SDS011;20128;45.582;5.298;2023-07-13T15:15:37;3.20;;;0.75;;
33826;SDS011;20128;45.582;5.298;2023-07-13T15:18:05;3.80;;;0.73;;
33826;SDS011;20128;45.582;5.298;2023-07-13T15:20:36;3.55;;;1.10;;
33826;SDS011;20128;45.582;5.298;2023-07-13T15:23:01;4.57;;;1.08;;
33826;SDS011;20128;45.582;5.298;2023-07-13T15:25:28;7.65;;;1.00;;
33826;SDS011;20128;45.582;5.298;2023-07-13T15:27:56;4.45;;;1.30;;
33826;SDS011;20128;45.582;5.298;2023-07-13T15:30:24;2.70;;;1.10;;
33826;SDS011;20128;45.582;5.298;2023-07-13T15:32:52;4.22;;;0.90;;
33826;SDS011;20128;45.582;5.298;2023-07-13T15:35:20;4.32;;;1.40;;
33826;SDS011;20128;45.582;5.298;2023-07-13T15:37:48;5.43;;;0.90;;
33826;SDS011;20128;45.582;5.298;2023-07-13T15:40:15;11.50;;;1.05;;
33826;SDS011;20128;45.582;5.298;2023-07-13T15:42:41;7.55;;;1.05;;
33826;SDS011;20128;45.582;5.298;2023-07-13T15:45:23;4.95;;;0.93;;
33826;SDS011;20128;45.582;5.298;2023-07-13T15:47:53;2.40;;;1.17;;
33826;SDS011;20128;45.582;5.298;2023-07-13T15:50:20;2.65;;;1.02;;
33826;SDS011;20128;45.582;5.298;2023-07-13T15:52:51;4.95;;;1.15;;
33826;SDS011;20128;45.582;5.298;2023-07-13T15:55:20;2.33;;;0.82;;
33826;SDS011;20128;45.582;5.298;2023-07-13T15:57:47;5.00;;;1.15;;
33826;SDS011;20128;45.582;5.298;2023-07-13T16:00:16;3.92;;;1.17;;
33826;SDS011;20128;45.582;5.298;2023-07-13T16:02:45;2.63;;;0.82;;
33826;SDS011;20128;45.582;5.298;2023-07-13T16:05:12;5.68;;;0.90;;
33826;SDS011;20128;45.582;5.298;2023-07-13T16:07:37;2.20;;;0.80;;